Amsterdam, Netherlands

12:32 AM CEST on May 25, 2015 (GMT +0200)
Aalsmeerderbrug | | Change Station
CLOSE
Current Station
Personal Weather Station
Location: Aalsmeerderbrug, NOORD-HOLLAND
Elevation: -3 ft
Nearby Weather Stations

Elev -3 ft 52.27 °N, 4.75 °E | Updated 2 minutes ago

Light Drizzle
Light Drizzle
54.7 °F
Feels Like 54.7 °F
N
0.0
Wind Variable Wind from NE
Gusts 0.7 mph

Today
High -- | Low -- °F
--% Chance of Precip.
Yesterday
High -- | Low -- °F
Precip. -- in
5:32 AM 9:43 PM
Waxing Crescent, 42% visible
Pressure 30.04 in
Visibility 3.7 miles
Clouds Few 600 ft
Scattered Clouds 900 ft
Mostly Cloudy 2400 ft
Dew Point 51 °F
Humidity 88%
Rainfall 0.00 in
Snow Depth Not available.
UV 0 out of 12
Pollen Not available.
Air Quality Not available.
Flu Activity Not available.
METAR EHAM 242225Z 27005KT 240V300 6000 -DZ FEW006 SCT009 BKN024 12/11 Q1017 BECMG 4000 BKN006

More Conditions Fewer Conditions

Pressure 30.04 in
Visibility 3.7 miles
Clouds Few 600 ft
Scattered Clouds 900 ft
Mostly Cloudy 2400 ft
Dew Point 51 °F
Humidity 88%
Rainfall 0.00 in
Snow Depth Not available.
UV 0 out of 12
Pollen Not available.
Air Quality Not available.
Flu Activity Not available.
METAR EHAM 242225Z 27005KT 240V300 6000 -DZ FEW006 SCT009 BKN024 12/11 Q1017 BECMG 4000 BKN006

More Conditions Fewer Conditions

10-Day Weather Forecast

Almanac

Astronomy

May. 25, 2015 Rise Set
Actual Time
Civil Twilight
Nautical Twilight
Astronomical Twilight
Moon
Length of Visible Light
Length of Day
Tomorrow will be .
, % of the Moon is Illuminated

Today's Extremes

Country Highs Country Lows

Community

WunderPhotos

Upload Photos

1,823,885 photos uploaded!

WunderBlogs® & News

Nearby

Air Quality

  Air Quality AQ Index Pollutant
Not available.

Snow Depth

Station Depth Elevation

Earthquake Activity

City Distance Mag. Time & Date
Minimum magnitude displayed is 2.5.

Coastal Water Temperatures

Place Temperature

Stations

Nearby Weather Stations

Station Location Temp. Windchill Dew Point Humidity Wind Precip. Elev Updated Type